createdAt,value
2018-04-09T00:00:55.621Z,5.72
2018-04-09T00:03:28.212Z,5.75
2018-04-09T00:05:55.648Z,5.97
2018-04-09T00:08:23.082Z,6.47
2018-04-09T00:10:50.572Z,5.60
2018-04-09T00:13:18.009Z,6.53
2018-04-09T00:15:45.445Z,6.05
2018-04-09T00:18:13.856Z,5.97
2018-04-09T00:20:41.289Z,5.93
2018-04-09T00:23:08.716Z,6.07
2018-04-09T00:25:36.195Z,5.97
2018-04-09T00:28:03.636Z,6.40
2018-04-09T00:30:31.070Z,6.18
2018-04-09T00:35:49.108Z,5.90
2018-04-09T00:38:16.540Z,5.60
2018-04-09T00:40:44.002Z,6.22
2018-04-09T00:43:11.432Z,5.80
2018-04-09T00:45:39.692Z,5.68
2018-04-09T00:48:07.128Z,6.45
2018-04-09T00:50:34.603Z,5.80
2018-04-09T00:53:02.025Z,6.32
2018-04-09T00:55:29.493Z,5.75
2018-04-09T00:57:56.928Z,5.65
2018-04-09T01:00:24.364Z,6.50
2018-04-09T01:02:52.272Z,6.12
2018-04-09T01:05:20.669Z,6.28
2018-04-09T01:07:48.107Z,6.32
2018-04-09T01:10:15.577Z,5.78
2018-04-09T01:12:43.037Z,5.87
2018-04-09T01:15:10.471Z,5.93
2018-04-09T01:17:38.002Z,6.53
2018-04-09T01:20:05.431Z,6.68
2018-04-09T01:22:32.918Z,6.78
2018-04-09T01:25:00.356Z,6.47
2018-04-09T01:27:27.804Z,6.87
2018-04-09T01:29:55.240Z,7.30
2018-04-09T01:32:22.988Z,6.30
2018-04-09T01:34:50.418Z,6.25
2018-04-09T01:37:17.849Z,6.25
2018-04-09T01:39:46.072Z,6.07
2018-04-09T01:42:13.528Z,6.22
2018-04-09T01:44:40.974Z,6.53
2018-04-09T01:47:09.049Z,7.00
2018-04-09T01:49:36.484Z,6.57
2018-04-09T01:52:03.984Z,5.97
2018-04-09T01:54:31.424Z,6.57
2018-04-09T01:56:58.869Z,6.30
2018-04-09T01:59:26.455Z,5.80
2018-04-09T02:01:59.987Z,6.57
2018-04-09T02:04:28.040Z,6.37
2018-04-09T02:06:55.481Z,5.65
2018-04-09T02:09:22.916Z,5.82
2018-04-09T02:11:50.404Z,6.43
2018-04-09T02:14:17.841Z,5.75
2018-04-09T02:16:45.272Z,5.60
2018-04-09T02:19:12.729Z,5.22
2018-04-09T02:21:40.933Z,4.80
2018-04-09T02:24:13.632Z,5.10
2018-04-09T02:26:41.070Z,5.22
2018-04-09T02:29:08.508Z,5.80
2018-04-09T02:31:35.970Z,5.95
2018-04-09T02:36:39.334Z,5.97
2018-04-09T02:39:06.792Z,5.70
2018-04-09T02:41:34.238Z,6.45
2018-04-09T02:44:01.881Z,5.50
2018-04-09T02:46:29.320Z,5.80
2018-04-09T02:48:56.747Z,6.28
2018-04-09T02:51:24.985Z,5.30
2018-04-09T02:53:52.421Z,6.30
2018-04-09T02:56:19.912Z,6.60
2018-04-09T02:58:47.344Z,6.20
2018-04-09T03:01:14.776Z,6.25
2018-04-09T03:03:42.259Z,6.07
2018-04-09T03:06:09.826Z,5.40
2018-04-09T03:08:37.263Z,6.00
2018-04-09T03:11:04.727Z,5.72
2018-04-09T03:13:32.167Z,5.55
2018-04-09T03:15:59.636Z,5.50
2018-04-09T03:18:27.068Z,5.60
2018-04-09T03:20:54.601Z,5.25
2018-04-09T03:23:22.032Z,5.37
2018-04-09T03:25:49.508Z,6.00
2018-04-09T03:28:16.964Z,5.15
2018-04-09T03:30:44.406Z,6.18
2018-04-09T03:33:11.864Z,5.75
2018-04-09T03:35:39.300Z,5.80
2018-04-09T03:38:06.835Z,5.72
2018-04-09T03:40:35.037Z,6.22
2018-04-09T03:43:02.493Z,5.75
2018-04-09T03:45:29.933Z,6.03
2018-04-09T03:50:58.048Z,6.30
2018-04-09T03:53:25.544Z,6.60
2018-04-09T03:55:52.974Z,6.50
2018-04-09T03:58:25.305Z,6.93
2018-04-09T04:00:52.668Z,7.40
2018-04-09T04:03:20.100Z,7.87
2018-04-09T04:05:47.576Z,7.12
2018-04-09T04:08:15.780Z,6.45
2018-04-09T04:10:43.203Z,6.57
2018-04-09T04:13:11.854Z,7.07
2018-04-09T04:15:51.244Z,7.00
2018-04-09T04:21:21.364Z,7.53
2018-04-09T04:23:49.592Z,7.50
2018-04-09T04:26:17.034Z,7.35
2018-04-09T04:28:44.675Z,7.45
2018-04-09T04:31:12.114Z,7.95
2018-04-09T04:33:39.537Z,6.87
2018-04-09T04:36:06.993Z,7.85
2018-04-09T04:38:34.424Z,7.05
2018-04-09T04:41:01.881Z,6.70
2018-04-09T04:43:29.312Z,6.37
2018-04-09T04:45:56.913Z,6.60
2018-04-09T04:48:24.340Z,5.65
2018-04-09T04:50:51.796Z,6.30
2018-04-09T04:53:19.276Z,6.62
2018-04-09T04:55:46.709Z,6.70
2018-04-09T04:58:14.132Z,5.80
2018-04-09T05:00:41.622Z,6.18
2018-04-09T05:03:09.048Z,6.32
2018-04-09T05:05:36.521Z,5.78
2018-04-09T05:08:04.732Z,7.22
2018-04-09T05:10:32.175Z,7.03
2018-04-09T05:12:59.697Z,6.50
2018-04-09T05:15:27.179Z,6.00
2018-04-09T05:17:55.374Z,5.90
2018-04-09T05:20:22.940Z,6.62
2018-04-09T05:22:50.368Z,5.15
2018-04-09T05:25:17.795Z,5.60
2018-04-09T05:27:45.417Z,6.18
2018-04-09T05:30:12.848Z,6.25
2018-04-09T05:32:40.284Z,5.65
2018-04-09T05:35:07.780Z,5.55
2018-04-09T05:37:35.256Z,5.45
2018-04-09T05:40:05.201Z,5.50
2018-04-09T05:42:32.697Z,5.72
2018-04-09T05:45:01.188Z,6.07
2018-04-09T05:47:28.641Z,5.95
2018-04-09T05:49:56.090Z,5.97
2018-04-09T05:52:24.312Z,5.80
2018-04-09T05:54:53.740Z,7.00
2018-04-09T05:57:21.269Z,5.80
2018-04-09T05:59:48.705Z,6.50
2018-04-09T06:02:16.177Z,5.97
2018-04-09T06:04:43.647Z,7.03
2018-04-09T06:07:11.091Z,6.40
2018-04-09T06:09:38.556Z,7.30
2018-04-09T06:12:06.105Z,7.37
2018-04-09T06:14:33.550Z,6.20
2018-04-09T06:17:00.976Z,5.75
2018-04-09T06:19:29.237Z,5.85
2018-04-09T06:21:56.668Z,5.87
2018-04-09T06:24:24.139Z,6.25
2018-04-09T06:26:51.573Z,5.10
2018-04-09T06:29:19.101Z,6.28
2018-04-09T06:31:46.541Z,6.75
2018-04-09T06:34:14.773Z,6.72
2018-04-09T06:36:42.223Z,5.32
2018-04-09T06:39:09.729Z,5.68
2018-04-09T06:41:37.175Z,6.62
2018-04-09T06:44:04.729Z,6.50
2018-04-09T06:46:32.237Z,7.25
2018-04-09T06:48:59.679Z,7.00
2018-04-09T06:51:27.906Z,7.30
2018-04-09T06:53:55.369Z,6.90
2018-04-09T06:56:22.800Z,6.75
2018-04-09T06:58:52.882Z,6.72
2018-04-09T07:01:21.086Z,7.30
2018-04-09T07:03:48.570Z,6.25
2018-04-09T07:06:18.044Z,6.40
2018-04-09T07:08:45.568Z,7.87
2018-04-09T07:11:13.800Z,8.13
2018-04-09T07:13:41.249Z,8.25
2018-04-09T07:16:08.788Z,7.97
2018-04-09T07:18:36.235Z,10.10
2018-04-09T07:21:04.533Z,11.05
2018-04-09T07:23:31.997Z,11.75
2018-04-09T07:25:59.455Z,10.70
2018-04-09T07:28:26.906Z,9.07
2018-04-09T07:30:54.436Z,9.55
2018-04-09T07:33:21.894Z,7.65
2018-04-09T07:35:49.343Z,7.45
2018-04-09T07:38:19.207Z,7.40
2018-04-09T07:40:47.508Z,6.72
2018-04-09T07:43:14.950Z,7.53
2018-04-09T07:45:42.381Z,7.30
2018-04-09T07:48:09.873Z,7.10
2018-04-09T07:50:37.340Z,6.85
2018-04-09T07:53:04.783Z,6.85
2018-04-09T07:55:32.207Z,6.20
2018-04-09T07:57:59.669Z,6.82
2018-04-09T08:00:27.168Z,6.70
2018-04-09T08:02:54.674Z,6.40
2018-04-09T08:05:22.139Z,6.32
2018-04-09T08:07:49.567Z,6.80
2018-04-09T08:10:17.024Z,7.20
2018-04-09T08:12:44.466Z,6.90
2018-04-09T08:15:11.916Z,6.72
2018-04-09T08:17:39.564Z,6.70
2018-04-09T08:20:07.005Z,7.55
2018-04-09T08:22:34.438Z,6.80
2018-04-09T08:25:01.994Z,7.95
2018-04-09T08:27:29.456Z,7.75
2018-04-09T08:29:56.892Z,8.15
2018-04-09T08:32:25.102Z,7.95
2018-04-09T08:34:53.057Z,8.27
2018-04-09T08:37:20.498Z,8.98
2018-04-09T08:39:48.701Z,7.30
2018-04-09T08:42:16.579Z,7.60
2018-04-09T08:44:43.997Z,7.10
2018-04-09T08:47:12.218Z,6.95
2018-04-09T08:49:39.763Z,6.70
2018-04-09T08:52:07.201Z,6.90
2018-04-09T08:54:35.413Z,7.15
2018-04-09T08:57:02.908Z,7.68
2018-04-09T08:59:30.354Z,7.43
2018-04-09T09:01:57.812Z,7.95
2018-04-09T09:04:25.288Z,7.00
2018-04-09T09:06:52.712Z,7.47
2018-04-09T09:09:20.269Z,7.20
2018-04-09T09:11:47.713Z,6.93
2018-04-09T09:14:15.140Z,7.10
2018-04-09T09:16:42.629Z,7.18
2018-04-09T09:19:10.079Z,6.82
2018-04-09T09:21:37.535Z,7.03
2018-04-09T09:24:06.357Z,7.10
2018-04-09T09:26:33.797Z,7.18
2018-04-09T09:29:01.245Z,7.30
2018-04-09T09:31:28.776Z,8.05
2018-04-09T09:33:56.264Z,8.52
2018-04-09T09:36:23.742Z,8.10
2018-04-09T09:38:51.172Z,7.57
2018-04-09T09:41:18.832Z,8.57
2018-04-09T09:43:46.305Z,8.30
2018-04-09T09:46:14.473Z,7.45
2018-04-09T09:48:42.092Z,7.40
2018-04-09T09:51:10.303Z,7.82
2018-04-09T09:53:37.740Z,8.32
2018-04-09T09:56:05.304Z,7.80
2018-04-09T09:58:32.757Z,7.80
2018-04-09T10:01:00.976Z,7.80
2018-04-09T10:03:29.248Z,8.20
2018-04-09T10:05:56.788Z,7.55
2018-04-09T10:08:24.237Z,7.80
2018-04-09T10:10:51.706Z,8.40
2018-04-09T10:13:19.152Z,7.83
2018-04-09T10:15:46.632Z,7.47
2018-04-09T10:18:14.076Z,8.33
2018-04-09T10:20:41.544Z,8.03
2018-04-09T10:23:09.060Z,7.60
2018-04-09T10:25:37.276Z,8.80
2018-04-09T10:28:04.713Z,8.87
2018-04-09T10:30:32.184Z,8.20
2018-04-09T10:32:59.607Z,8.03
2018-04-09T10:35:27.816Z,8.20
2018-04-09T10:37:55.344Z,7.90
2018-04-09T10:40:23.552Z,8.30
2018-04-09T10:42:51.036Z,8.70
2018-04-09T10:45:18.472Z,8.00
2018-04-09T10:47:45.917Z,8.40
2018-04-09T10:50:14.317Z,8.57
2018-04-09T10:52:41.923Z,7.97
2018-04-09T10:55:09.348Z,8.70
2018-04-09T10:57:36.793Z,8.70
2018-04-09T11:00:04.277Z,8.10
2018-04-09T11:02:34.173Z,8.43
2018-04-09T11:05:01.612Z,7.80
2018-04-09T11:07:29.068Z,7.20
2018-04-09T11:09:56.599Z,7.40
2018-04-09T11:12:24.831Z,7.80
2018-04-09T11:14:52.272Z,8.33
2018-04-09T11:17:19.719Z,8.17
2018-04-09T11:19:47.185Z,7.27
2018-04-09T11:22:14.620Z,7.83
2018-04-09T11:24:42.069Z,7.20
2018-04-09T11:27:12.123Z,8.53
2018-04-09T11:29:39.561Z,8.10
2018-04-09T11:32:07.228Z,9.30
2018-04-09T11:34:34.744Z,8.83
2018-04-09T11:37:02.957Z,8.50
2018-04-09T11:39:37.863Z,8.90
2018-04-09T11:42:06.074Z,9.10
2018-04-09T11:44:33.510Z,9.40
2018-04-09T11:47:01.078Z,9.00
2018-04-09T11:49:28.527Z,7.93
2018-04-09T11:51:55.976Z,8.30
2018-04-09T11:54:24.330Z,8.97
2018-04-09T11:56:51.776Z,8.63
2018-04-09T11:59:19.241Z,8.20
2018-04-09T12:01:46.685Z,8.50
2018-04-09T12:04:14.123Z,10.00
2018-04-09T12:06:41.650Z,9.20
2018-04-09T12:09:09.095Z,9.10
2018-04-09T12:11:42.460Z,10.00
2018-04-09T12:14:09.899Z,8.37
2018-04-09T12:16:37.348Z,8.47
2018-04-09T12:19:04.803Z,8.83
2018-04-09T12:21:33.502Z,9.40
2018-04-09T12:24:00.938Z,9.53
2018-04-09T12:26:28.373Z,9.83
2018-04-09T12:28:55.913Z,10.37
2018-04-09T12:31:24.164Z,9.83
2018-04-09T12:33:51.611Z,9.37
2018-04-09T12:36:19.059Z,11.17
2018-04-09T12:38:46.643Z,11.37
2018-04-09T12:41:16.546Z,11.13
2018-04-09T12:43:43.990Z,10.67
2018-04-09T12:46:12.663Z,12.20
2018-04-09T12:48:40.094Z,11.00
2018-04-09T12:51:07.606Z,12.50
2018-04-09T12:53:35.055Z,14.53
2018-04-09T12:56:02.670Z,15.60
2018-04-09T12:58:31.210Z,13.67
2018-04-09T13:03:25.350Z,15.53
2018-04-09T13:05:53.074Z,14.40
2018-04-09T13:08:20.518Z,13.63
2018-04-09T13:10:47.959Z,14.47
2018-04-09T13:13:15.426Z,14.60
2018-04-09T13:15:42.876Z,16.80
2018-04-09T13:18:10.338Z,18.43
2018-04-09T13:20:37.791Z,17.30
2018-04-09T13:23:05.444Z,17.57
2018-04-09T13:25:32.892Z,16.53
2018-04-09T13:28:00.364Z,17.33
2018-04-09T13:30:27.830Z,17.80
2018-04-09T13:32:55.277Z,17.23
2018-04-09T13:35:22.755Z,18.93
2018-04-09T13:37:50.207Z,17.27
2018-04-09T13:40:17.800Z,18.40
2018-04-09T13:42:45.471Z,17.73
2018-04-09T13:45:13.679Z,17.37
2018-04-09T13:47:41.436Z,17.40
2018-04-09T13:50:08.840Z,17.27
2018-04-09T13:52:36.278Z,17.40
2018-04-09T13:55:03.846Z,16.70
2018-04-09T13:57:31.293Z,18.53
2018-04-09T13:59:58.747Z,17.77
2018-04-09T14:02:26.254Z,18.40
2018-04-09T14:04:54.486Z,18.07
2018-04-09T14:07:21.941Z,19.50
2018-04-09T14:09:49.537Z,20.10
2018-04-09T14:12:16.979Z,22.00
2018-04-09T14:14:44.427Z,22.07
2018-04-09T14:17:11.926Z,21.80
2018-04-09T14:19:40.182Z,21.83
2018-04-09T14:22:07.617Z,24.50
2018-04-09T14:24:35.063Z,22.00
2018-04-09T14:27:02.538Z,24.80
2018-04-09T14:29:29.977Z,24.17
2018-04-09T14:31:57.605Z,22.97
2018-04-09T14:34:25.848Z,23.73
2018-04-09T14:36:53.290Z,22.73
2018-04-09T14:39:20.750Z,24.30
2018-04-09T14:41:48.328Z,23.67
2018-04-09T14:44:15.876Z,24.40
2018-04-09T14:46:43.462Z,25.30
2018-04-09T14:49:11.502Z,25.70
2018-04-09T14:51:38.961Z,24.27
2018-04-09T14:54:06.389Z,25.37
2018-04-09T14:56:33.874Z,25.43
2018-04-09T14:59:01.354Z,26.07
2018-04-09T15:01:28.791Z,25.33
2018-04-09T15:03:56.329Z,24.00
2018-04-09T15:06:23.786Z,23.97
2018-04-09T15:08:52.218Z,22.57
2018-04-09T15:11:19.663Z,23.20
2018-04-09T15:13:47.145Z,23.30
2018-04-09T15:16:15.487Z,24.27
2018-04-09T15:18:42.922Z,23.53
2018-04-09T15:21:14.215Z,24.50
2018-04-09T15:23:41.659Z,24.33
2018-04-09T15:26:09.109Z,26.27
2018-04-09T15:28:36.907Z,24.60
2018-04-09T15:31:04.414Z,24.77
2018-04-09T15:33:31.921Z,22.23
2018-04-09T15:35:59.354Z,23.63
2018-04-09T15:38:26.854Z,22.17
2018-04-09T15:40:55.158Z,23.00
2018-04-09T15:43:22.623Z,23.80
2018-04-09T15:45:50.954Z,23.10
2018-04-09T15:48:19.219Z,23.53
2018-04-09T15:50:46.670Z,23.57
2018-04-09T15:53:14.207Z,24.00
2018-04-09T15:55:41.650Z,24.00
2018-04-09T15:58:09.099Z,24.00
2018-04-09T16:00:36.567Z,24.43
2018-04-09T16:03:04.011Z,22.63
2018-04-09T16:05:31.700Z,23.90
2018-04-09T16:07:59.155Z,22.50
2018-04-09T16:10:26.590Z,23.47
2018-04-09T16:12:54.059Z,23.10
2018-04-09T16:15:21.546Z,23.47
2018-04-09T16:18:00.926Z,24.33
2018-04-09T16:20:28.412Z,23.57
2018-04-09T16:22:55.883Z,21.60
2018-04-09T16:25:23.446Z,23.47
2018-04-09T16:27:51.123Z,21.87
2018-04-09T16:30:18.695Z,23.03
2018-04-09T16:32:46.185Z,21.40
2018-04-09T16:35:13.680Z,21.83
2018-04-09T16:37:41.131Z,21.93
2018-04-09T16:40:08.989Z,21.30
2018-04-09T16:42:36.436Z,23.17
2018-04-09T16:45:03.894Z,21.27
2018-04-09T16:47:31.463Z,21.20
2018-04-09T16:49:58.912Z,21.60
2018-04-09T16:52:26.362Z,21.13
2018-04-09T16:54:53.983Z,23.20
2018-04-09T16:57:21.445Z,23.63
2018-04-09T16:59:48.895Z,22.03
2018-04-09T17:02:16.404Z,20.67
2018-04-09T17:04:43.850Z,20.40
2018-04-09T17:07:11.282Z,21.93
2018-04-09T17:09:39.926Z,21.23
2018-04-09T17:12:07.367Z,22.00
2018-04-09T17:14:34.820Z,20.73
2018-04-09T17:17:02.285Z,26.40
2018-04-09T17:19:29.727Z,25.23
2018-04-09T17:21:57.227Z,19.70
2018-04-09T17:24:24.679Z,19.60
2018-04-09T17:26:52.126Z,19.57
2018-04-09T17:29:19.782Z,21.27
2018-04-09T17:31:47.227Z,19.80
2018-04-09T17:34:14.697Z,20.07
2018-04-09T17:36:43.398Z,21.47
2018-04-09T17:39:10.840Z,19.67
2018-04-09T17:41:42.055Z,20.53
2018-04-09T17:44:10.357Z,19.40
2018-04-09T17:46:37.786Z,19.37
2018-04-09T17:49:06.122Z,19.17
2018-04-09T17:51:33.975Z,18.80
2018-04-09T17:54:01.427Z,17.97
2018-04-09T17:56:29.094Z,16.63
2018-04-09T17:58:56.525Z,17.77
2018-04-09T18:01:23.978Z,16.70
2018-04-09T18:03:51.446Z,15.80
2018-04-09T18:06:18.893Z,15.00
2018-04-09T18:08:46.367Z,15.87
2018-04-09T18:11:13.815Z,15.43
2018-04-09T18:13:41.250Z,15.20
2018-04-09T18:16:08.836Z,14.53
2018-04-09T18:18:36.326Z,14.45
2018-04-09T18:21:03.777Z,14.10
2018-04-09T18:23:31.270Z,11.60
2018-04-09T18:25:59.606Z,12.10
2018-04-09T18:28:27.047Z,11.00
2018-04-09T18:30:54.539Z,9.90
2018-04-09T18:33:21.978Z,9.13
2018-04-09T18:35:49.433Z,9.52
2018-04-09T18:38:16.871Z,8.35
2018-04-09T18:40:44.447Z,8.75
2018-04-09T18:43:12.060Z,8.88
2018-04-09T18:45:40.273Z,8.85
2018-04-09T18:48:08.986Z,9.32
2018-04-09T18:50:36.454Z,10.00
2018-04-09T18:53:03.914Z,10.10
2018-04-09T18:55:31.475Z,9.80
2018-04-09T18:57:58.914Z,9.43
2018-04-09T19:00:26.367Z,19.10
2018-04-09T19:02:54.024Z,11.48
2018-04-09T19:05:21.466Z,19.15
2018-04-09T19:07:48.926Z,22.85
2018-04-09T19:10:16.482Z,16.05
2018-04-09T19:12:43.935Z,10.55
2018-04-09T19:15:11.370Z,8.27
2018-04-09T19:17:40.009Z,7.60
2018-04-09T19:20:08.481Z,9.85
2018-04-09T19:22:35.959Z,16.65
2018-04-09T19:25:03.455Z,14.25
2018-04-09T19:27:31.722Z,22.33
2018-04-09T19:30:00.106Z,19.33
2018-04-09T19:32:27.595Z,13.35
2018-04-09T19:35:00.649Z,17.75
2018-04-09T19:37:45.759Z,9.88
2018-04-09T19:40:18.782Z,9.10
2018-04-09T19:42:46.824Z,8.07
2018-04-09T19:45:14.288Z,9.02
2018-04-09T19:47:41.729Z,9.95
2018-04-09T19:50:09.192Z,8.93
2018-04-09T19:52:37.534Z,10.65
2018-04-09T19:55:05.750Z,11.40
2018-04-09T19:57:33.183Z,13.35
2018-04-09T20:00:00.923Z,12.63
2018-04-09T20:02:28.359Z,10.68
2018-04-09T20:04:55.806Z,8.10
2018-04-09T20:07:23.399Z,9.20
2018-04-09T20:09:50.838Z,8.90
2018-04-09T20:12:18.330Z,10.90
2018-04-09T20:14:46.593Z,11.57
2018-04-09T20:17:14.813Z,12.80
2018-04-09T20:19:42.247Z,9.07
2018-04-09T20:22:10.918Z,8.95
2018-04-09T20:24:38.303Z,8.30
2018-04-09T20:27:05.774Z,7.90
2018-04-09T20:29:33.223Z,7.10
2018-04-09T20:32:00.710Z,7.93
2018-04-09T20:34:28.209Z,7.93
2018-04-09T20:36:56.425Z,7.72
2018-04-09T20:39:23.988Z,7.80
2018-04-09T20:41:52.161Z,8.57
2018-04-09T20:44:19.746Z,9.10
2018-04-09T20:46:47.189Z,8.95
2018-04-09T20:49:14.648Z,9.27
2018-04-09T20:51:42.106Z,9.35
2018-04-09T20:54:09.606Z,9.40
2018-04-09T20:56:37.817Z,10.60
2018-04-09T20:59:05.261Z,10.32
2018-04-09T21:01:33.630Z,10.68
2018-04-09T21:04:01.834Z,12.07
2018-04-09T21:06:29.319Z,11.52
2018-04-09T21:08:56.758Z,9.65
2018-04-09T21:11:24.331Z,8.85
2018-04-09T21:13:51.766Z,10.35
2018-04-09T21:16:19.210Z,11.05
2018-04-09T21:18:46.735Z,11.38
2018-04-09T21:21:14.179Z,11.80
2018-04-09T21:23:41.642Z,10.85
2018-04-09T21:26:09.099Z,10.60
2018-04-09T21:28:36.533Z,10.20
2018-04-09T21:31:07.613Z,10.75
2018-04-09T21:33:35.047Z,10.60
2018-04-09T21:36:02.687Z,10.13
2018-04-09T21:38:30.124Z,9.55
2018-04-09T21:40:57.595Z,9.15
2018-04-09T21:43:25.048Z,9.68
2018-04-09T21:45:52.488Z,10.38
2018-04-09T21:48:20.054Z,10.00
2018-04-09T21:50:47.503Z,10.38
2018-04-09T21:53:14.935Z,10.40
2018-04-09T21:55:43.237Z,10.23
2018-04-09T21:58:10.708Z,11.45
2018-04-09T22:00:38.141Z,9.80
2018-04-09T22:03:11.085Z,10.25
2018-04-09T22:05:38.527Z,11.68
2018-04-09T22:08:05.974Z,10.40
2018-04-09T22:10:33.446Z,10.00
2018-04-09T22:13:01.122Z,10.50
2018-04-09T22:15:28.570Z,10.52
2018-04-09T22:17:56.019Z,11.02
2018-04-09T22:20:28.607Z,9.90
2018-04-09T22:22:56.054Z,10.75
2018-04-09T22:25:23.496Z,10.70
2018-04-09T22:27:50.979Z,11.00
2018-04-09T22:30:18.433Z,12.18
2018-04-09T22:32:45.871Z,11.50
2018-04-09T22:35:17.143Z,11.77
2018-04-09T22:37:44.586Z,12.00
2018-04-09T22:40:12.034Z,12.75
2018-04-09T22:42:39.501Z,12.13
2018-04-09T22:45:06.940Z,12.55
2018-04-09T22:47:34.431Z,12.40
2018-04-09T22:50:01.869Z,12.63
2018-04-09T22:52:29.319Z,12.60
2018-04-09T22:54:56.867Z,11.80
2018-04-09T22:57:24.312Z,13.62
2018-04-09T22:59:53.510Z,16.60
2018-04-09T23:02:20.949Z,13.10
2018-04-09T23:04:49.155Z,12.77
2018-04-09T23:07:16.763Z,13.65
2018-04-09T23:09:44.199Z,13.90
2018-04-09T23:12:11.693Z,14.27
2018-04-09T23:14:40.062Z,14.00
2018-04-09T23:17:13.606Z,14.05
2018-04-09T23:19:42.039Z,13.73
2018-04-09T23:22:10.426Z,14.60
2018-04-09T23:24:37.923Z,14.90
2018-04-09T23:27:05.401Z,13.85
2018-04-09T23:29:35.866Z,14.57
2018-04-09T23:32:03.450Z,15.00
2018-04-09T23:34:31.666Z,14.30
2018-04-09T23:36:59.111Z,14.98
2018-04-09T23:39:26.910Z,15.80
2018-04-09T23:41:57.982Z,15.90
2018-04-09T23:44:25.418Z,15.98
2018-04-09T23:46:52.979Z,16.58
2018-04-09T23:49:20.421Z,16.67
2018-04-09T23:51:47.862Z,16.52
2018-04-09T23:54:15.326Z,16.87
2018-04-09T23:56:42.778Z,16.95
2018-04-09T23:59:10.306Z,17.55
